Time;durP1;ratioP1;P1;durP2;ratioP2;P2;SDS_P1;SDS_P2;PMS_P1;PMS_P2;Temp;Humidity;BMP_temperature;BMP_pressure;BME280_temperature;BME280_humidity;BME280_pressure;Samples;Min_cycle;Max_cycle;Signal;HPM_P1;HPM_P2
2021/10/06 00:01:57;;;;;;;0.73;0.60;;;;;;;;;;4984158;28;20254;-60
2021/10/06 00:04:22;;;;;;;1.95;0.70;;;;;;;;;;4973811;28;20015;-60
2021/10/06 00:06:47;;;;;;;1.70;0.50;;;;;;;;;;4972458;28;20027;-58
2021/10/06 00:09:13;;;;;;;2.75;0.70;;;;;;;;;;4973589;28;20345;-59
2021/10/06 00:11:39;;;;;;;1.35;0.57;;;;;;;;;;4973808;28;20035;-58
2021/10/06 00:14:05;;;;;;;2.03;0.45;;;;;;;;;;4973740;28;20019;-59
2021/10/06 00:16:31;;;;;;;0.47;0.40;;;;;;;;;;4973608;28;20437;-59
2021/10/06 00:18:56;;;;;;;2.22;0.55;;;;;;;;;;4972389;28;20015;-59
2021/10/06 00:21:27;;;;;;;0.82;0.45;;;;;;;;;;4972338;28;20426;-60
2021/10/06 00:23:53;;;;;;;2.50;0.60;;;;;;;;;;4972606;28;20023;-60
2021/10/06 00:26:18;;;;;;;1.00;0.50;;;;;;;;;;4973543;28;20441;-57
2021/10/06 00:28:46;;;;;;;1.37;0.57;;;;;;;;;;4973589;28;20764;-59
2021/10/06 00:31:20;;;;;;;0.63;0.32;;;;;;;;;;4973604;28;20266;-59
2021/10/06 00:33:45;;;;;;;3.03;0.50;;;;;;;;;;4972381;28;20035;-60
2021/10/06 00:36:11;;;;;;;0.87;0.30;;;;;;;;;;4972339;28;20474;-57
2021/10/06 00:38:39;;;;;;;1.03;0.40;;;;;;;;;;4972056;28;20400;-54
2021/10/06 00:41:04;;;;;;;1.70;0.50;;;;;;;;;;4973516;28;20773;-56
2021/10/06 00:43:29;;;;;;;1.17;0.50;;;;;;;;;;4973455;28;20027;-58
2021/10/06 00:45:58;;;;;;;0.73;0.40;;;;;;;;;;4973484;28;20108;-58
2021/10/06 00:48:23;;;;;;;2.90;0.50;;;;;;;;;;4973367;28;20270;-58
2021/10/06 00:50:50;;;;;;;0.83;0.37;;;;;;;;;;4973365;28;20027;-60
2021/10/06 00:53:16;;;;;;;3.35;0.47;;;;;;;;;;4973284;28;20266;-57
2021/10/06 00:55:41;;;;;;;1.02;0.43;;;;;;;;;;4973306;28;20038;-56
2021/10/06 00:58:09;;;;;;;2.85;0.40;;;;;;;;;;4984455;28;20048;-59
2021/10/06 01:00:35;;;;;;;1.25;0.60;;;;;;;;;;4992823;28;20022;-57
2021/10/06 01:03:00;;;;;;;0.55;0.30;;;;;;;;;;4992717;28;20089;-57
2021/10/06 01:05:25;;;;;;;2.35;0.57;;;;;;;;;;4992747;28;20023;-56
2021/10/06 01:08:00;;;;;;;4.30;0.40;;;;;;;;;;4992490;28;20034;-55
2021/10/06 01:10:27;;;;;;;0.93;0.45;;;;;;;;;;4992672;28;20021;-57
2021/10/06 01:12:56;;;;;;;2.00;0.25;;;;;;;;;;4992702;28;20022;-56
2021/10/06 01:15:28;;;;;;;1.80;0.60;;;;;;;;;;4993617;28;20053;-57
2021/10/06 01:17:56;;;;;;;0.77;0.30;;;;;;;;;;4994943;28;20022;-58
2021/10/06 01:20:21;;;;;;;0.70;0.30;;;;;;;;;;4994781;28;20019;-56
2021/10/06 01:23:02;;;;;;;0.30;0.30;;;;;;;;;;4995006;28;20046;-54
2021/10/06 01:25:27;;;;;;;2.70;0.50;;;;;;;;;;4996102;28;20037;-56
2021/10/06 01:27:53;;;;;;;1.37;0.30;;;;;;;;;;4996098;28;20030;-58
2021/10/06 01:30:21;;;;;;;1.77;0.30;;;;;;;;;;4995978;28;20323;-51
2021/10/06 01:32:54;;;;;;;0.40;0.30;;;;;;;;;;4994524;28;20068;-54
2021/10/06 01:35:23;;;;;;;2.30;0.38;;;;;;;;;;4994624;28;20054;-53
2021/10/06 01:37:48;;;;;;;1.85;0.40;;;;;;;;;;4994700;28;20090;-53
2021/10/06 01:40:18;;;;;;;0.80;0.32;;;;;;;;;;4994539;28;20026;-52
2021/10/06 01:42:43;;;;;;;1.35;0.40;;;;;;;;;;4994602;28;20389;-55
2021/10/06 01:45:19;;;;;;;1.10;0.40;;;;;;;;;;4995688;28;20022;-57
2021/10/06 01:47:44;;;;;;;1.40;0.40;;;;;;;;;;4994472;28;20030;-51
2021/10/06 01:50:10;;;;;;;1.17;0.40;;;;;;;;;;4995741;28;20389;-60
2021/10/06 01:52:44;;;;;;;2.13;0.40;;;;;;;;;;4995677;28;20134;-56
2021/10/06 01:55:09;;;;;;;0.63;0.40;;;;;;;;;;4995415;28;20026;-61
2021/10/06 01:57:34;;;;;;;0.65;0.28;;;;;;;;;;4994957;28;20051;-57
2021/10/06 02:00:00;;;;;;;0.70;0.50;;;;;;;;;;5007319;28;20064;-61
2021/10/06 02:02:31;;;;;;;0.88;0.40;;;;;;;;;;4995484;28;20027;-60
2021/10/06 02:04:59;;;;;;;1.50;0.57;;;;;;;;;;4995434;28;20508;-56
2021/10/06 02:07:27;;;;;;;0.65;0.40;;;;;;;;;;4995395;28;20135;-55
2021/10/06 02:09:52;;;;;;;2.35;0.35;;;;;;;;;;4995260;28;20019;-57
2021/10/06 02:12:25;;;;;;;3.17;0.40;;;;;;;;;;4995217;28;20018;-58
2021/10/06 02:15:08;;;;;;;1.33;0.40;;;;;;;;;;4993971;28;20320;-56
2021/10/06 02:17:36;;;;;;;1.08;0.50;;;;;;;;;;4993969;28;20037;-56
2021/10/06 02:20:02;;;;;;;1.23;0.30;;;;;;;;;;4995027;28;20025;-57
2021/10/06 02:22:28;;;;;;;0.77;0.38;;;;;;;;;;4995009;28;20097;-58
2021/10/06 02:24:53;;;;;;;1.20;0.40;;;;;;;;;;4993629;28;20030;-57
2021/10/06 02:27:18;;;;;;;0.93;0.30;;;;;;;;;;4994973;28;20674;-57
2021/10/06 02:29:44;;;;;;;0.70;0.30;;;;;;;;;;4994131;28;20113;-54
2021/10/06 02:32:12;;;;;;;2.83;0.40;;;;;;;;;;4994830;28;20474;-58
2021/10/06 02:34:37;;;;;;;3.33;0.80;;;;;;;;;;4994762;28;20272;-58
2021/10/06 02:37:02;;;;;;;1.33;0.80;;;;;;;;;;4994628;28;20035;-54
2021/10/06 02:39:31;;;;;;;1.77;0.80;;;;;;;;;;4994747;28;20316;-52
2021/10/06 02:41:59;;;;;;;1.65;0.52;;;;;;;;;;4993506;28;20018;-53
2021/10/06 02:44:27;;;;;;;0.50;0.40;;;;;;;;;;4994787;28;20018;-54
2021/10/06 02:46:52;;;;;;;1.75;0.40;;;;;;;;;;4961097;28;20478;-59
2021/10/06 02:49:18;;;;;;;1.40;0.45;;;;;;;;;;4975208;28;20073;-58
2021/10/06 02:51:43;;;;;;;1.73;0.50;;;;;;;;;;4975062;28;20027;-56
2021/10/06 02:54:11;;;;;;;3.40;0.50;;;;;;;;;;4975117;28;20034;-55
2021/10/06 02:56:36;;;;;;;2.28;0.45;;;;;;;;;;4974714;28;20338;-54
2021/10/06 02:59:02;;;;;;;3.17;0.73;;;;;;;;;;5004288;28;20033;-55
2021/10/06 03:01:27;;;;;;;0.70;0.53;;;;;;;;;;4997023;28;20261;-57
2021/10/06 03:04:01;;;;;;;1.80;0.43;;;;;;;;;;4994305;28;20262;-56
2021/10/06 03:06:32;;;;;;;1.35;0.60;;;;;;;;;;4994060;28;20324;-54
2021/10/06 03:08:57;;;;;;;1.67;0.68;;;;;;;;;;4992989;28;20030;-57
2021/10/06 03:11:28;;;;;;;3.53;0.80;;;;;;;;;;4994198;28;20026;-56
2021/10/06 03:13:54;;;;;;;3.70;0.52;;;;;;;;;;4994133;28;20320;-57
2021/10/06 03:16:31;;;;;;;1.57;0.70;;;;;;;;;;4993853;28;20425;-58
2021/10/06 03:18:56;;;;;;;1.60;0.60;;;;;;;;;;4993905;28;20827;-58
2021/10/06 03:21:21;;;;;;;0.70;0.50;;;;;;;;;;4993938;28;20114;-54
2021/10/06 03:23:47;;;;;;;3.63;0.83;;;;;;;;;;4994017;28;20301;-58
2021/10/06 03:26:12;;;;;;;2.67;0.80;;;;;;;;;;4994001;28;20323;-59
2021/10/06 03:28:40;;;;;;;3.42;0.77;;;;;;;;;;4993817;28;20069;-55
2021/10/06 03:31:05;;;;;;;2.63;0.70;;;;;;;;;;4993803;28;20022;-57
2021/10/06 03:33:33;;;;;;;2.58;0.70;;;;;;;;;;4993567;28;20048;-60
2021/10/06 03:35:58;;;;;;;2.03;0.85;;;;;;;;;;4993675;28;20027;-51
2021/10/06 03:38:26;;;;;;;2.17;0.57;;;;;;;;;;4993213;28;20025;-57
2021/10/06 03:40:52;;;;;;;3.72;0.57;;;;;;;;;;4993632;28;20255;-60
2021/10/06 03:43:17;;;;;;;2.53;0.70;;;;;;;;;;4993566;28;20026;-58
2021/10/06 03:45:42;;;;;;;3.38;0.68;;;;;;;;;;4993583;28;20026;-55
2021/10/06 03:48:08;;;;;;;2.22;0.63;;;;;;;;;;4993277;28;20469;-61
2021/10/06 03:50:33;;;;;;;0.93;0.50;;;;;;;;;;4993509;28;20034;-57
2021/10/06 03:52:58;;;;;;;0.93;0.50;;;;;;;;;;4992222;28;20385;-57
2021/10/06 03:55:26;;;;;;;2.60;0.68;;;;;;;;;;4993432;28;20292;-58
2021/10/06 03:57:51;;;;;;;4.30;0.57;;;;;;;;;;4994568;28;20046;-61
2021/10/06 04:00:23;;;;;;;2.20;0.70;;;;;;;;;;5005518;28;20014;-60
2021/10/06 04:02:51;;;;;;;3.63;0.57;;;;;;;;;;4993205;28;20344;-58
2021/10/06 04:05:16;;;;;;;0.57;0.40;;;;;;;;;;4993347;28;20105;-59
2021/10/06 04:07:44;;;;;;;2.23;0.73;;;;;;;;;;4993257;28;20053;-60
2021/10/06 04:10:13;;;;;;;1.40;0.60;;;;;;;;;;4993286;28;20261;-56
2021/10/06 04:12:38;;;;;;;2.75;0.70;;;;;;;;;;4993064;28;20053;-58
2021/10/06 04:15:04;;;;;;;2.05;0.65;;;;;;;;;;4993069;28;20026;-57
2021/10/06 04:17:29;;;;;;;2.55;0.52;;;;;;;;;;4992975;28;20019;-55
2021/10/06 04:19:54;;;;;;;1.27;0.80;;;;;;;;;;4993208;28;20390;-54
2021/10/06 04:22:23;;;;;;;1.30;0.60;;;;;;;;;;4992912;28;20257;-54
2021/10/06 04:24:57;;;;;;;1.50;0.52;;;;;;;;;;4991855;28;20025;-55
2021/10/06 04:27:25;;;;;;;1.42;0.60;;;;;;;;;;4992870;28;20105;-55
2021/10/06 04:29:50;;;;;;;2.55;0.52;;;;;;;;;;4992830;28;20022;-58
2021/10/06 04:32:15;;;;;;;2.03;0.40;;;;;;;;;;4991769;28;20023;-60
2021/10/06 04:34:41;;;;;;;5.17;0.70;;;;;;;;;;4993013;28;20262;-60
2021/10/06 04:37:06;;;;;;;0.57;0.53;;;;;;;;;;4993141;28;20768;-58
2021/10/06 04:39:32;;;;;;;2.80;0.50;;;;;;;;;;4992869;28;20018;-58
2021/10/06 04:42:00;;;;;;;1.30;0.40;;;;;;;;;;4991828;28;20340;-59
2021/10/06 04:44:25;;;;;;;1.10;0.40;;;;;;;;;;4992796;28;20491;-60
2021/10/06 04:46:53;;;;;;;2.08;0.57;;;;;;;;;;4992837;28;20093;-58
2021/10/06 04:49:18;;;;;;;1.92;0.60;;;;;;;;;;4993593;28;20026;-59
2021/10/06 04:51:52;;;;;;;4.35;0.55;;;;;;;;;;4996827;28;20485;-56
2021/10/06 04:54:17;;;;;;;1.00;0.50;;;;;;;;;;4996696;28;20015;-57
2021/10/06 04:56:43;;;;;;;1.10;0.67;;;;;;;;;;4996553;28;20520;-59
2021/10/06 04:59:17;;;;;;;2.60;0.60;;;;;;;;;;5007687;28;20269;-60
2021/10/06 05:01:42;;;;;;;1.75;0.50;;;;;;;;;;4996955;28;20267;-60
2021/10/06 05:04:07;;;;;;;1.10;0.50;;;;;;;;;;4966799;28;20033;-61
2021/10/06 05:06:33;;;;;;;1.08;0.68;;;;;;;;;;4975566;28;20035;-60
2021/10/06 05:08:58;;;;;;;1.52;0.50;;;;;;;;;;4976757;28;20023;-59
2021/10/06 05:11:24;;;;;;;0.85;0.40;;;;;;;;;;4976614;28;20370;-60
2021/10/06 05:13:49;;;;;;;0.88;0.40;;;;;;;;;;4975555;28;20022;-58
2021/10/06 05:16:15;;;;;;;2.13;0.35;;;;;;;;;;4975313;28;20168;-61
2021/10/06 05:18:40;;;;;;;1.00;0.43;;;;;;;;;;4976731;28;20073;-61
2021/10/06 05:21:05;;;;;;;1.80;0.47;;;;;;;;;;4976966;28;20377;-61
2021/10/06 05:23:30;;;;;;;2.17;0.60;;;;;;;;;;4976628;28;20665;-61
2021/10/06 05:25:56;;;;;;;1.35;0.52;;;;;;;;;;4976368;28;20269;-61
2021/10/06 05:28:21;;;;;;;2.73;0.50;;;;;;;;;;4975372;28;20039;-61
2021/10/06 05:30:46;;;;;;;1.77;0.50;;;;;;;;;;4992613;28;20272;-61
2021/10/06 05:33:14;;;;;;;2.67;0.60;;;;;;;;;;4988874;28;20014;-60
2021/10/06 05:35:40;;;;;;;2.00;0.43;;;;;;;;;;4994321;28;20799;-61
2021/10/06 05:38:05;;;;;;;1.38;0.50;;;;;;;;;;4994243;28;20029;-61
2021/10/06 05:40:31;;;;;;;1.97;0.60;;;;;;;;;;4976164;28;20023;-59
2021/10/06 05:42:59;;;;;;;0.95;0.40;;;;;;;;;;4975062;28;20345;-61
2021/10/06 05:45:24;;;;;;;0.63;0.40;;;;;;;;;;4978377;28;20543;-61
2021/10/06 05:47:56;;;;;;;2.80;0.70;;;;;;;;;;4991511;28;20038;-61
2021/10/06 05:50:21;;;;;;;5.40;0.40;;;;;;;;;;4995322;28;20033;-61
2021/10/06 05:52:56;;;;;;;0.73;0.40;;;;;;;;;;4990656;28;20031;-60
2021/10/06 05:55:25;;;;;;;1.75;0.47;;;;;;;;;;4981928;28;20030;-59
2021/10/06 05:57:50;;;;;;;0.50;0.45;;;;;;;;;;4992283;28;20034;-60
2021/10/06 06:00:15;;;;;;;1.05;0.50;;;;;;;;;;4994802;28;20089;-61
2021/10/06 06:02:46;;;;;;;1.38;0.40;;;;;;;;;;4993859;28;20018;-59
2021/10/06 06:05:15;;;;;;;0.80;0.45;;;;;;;;;;4989971;28;20037;-61
2021/10/06 06:07:40;;;;;;;2.92;0.60;;;;;;;;;;4990597;28;20042;-61
2021/10/06 06:10:06;;;;;;;0.73;0.50;;;;;;;;;;4991011;28;20548;-61
2021/10/06 06:12:32;;;;;;;1.27;0.55;;;;;;;;;;4991366;28;20054;-61
2021/10/06 06:14:57;;;;;;;1.58;0.70;;;;;;;;;;4994115;28;20409;-61
2021/10/06 06:17:22;;;;;;;3.13;1.00;;;;;;;;;;4994615;28;20621;-61
2021/10/06 06:19:47;;;;;;;2.33;0.90;;;;;;;;;;4993047;28;20077;-61
2021/10/06 06:22:13;;;;;;;1.97;1.50;;;;;;;;;;4987093;28;20265;-61
2021/10/06 06:24:38;;;;;;;2.60;1.85;;;;;;;;;;4992783;28;20278;-59
2021/10/06 06:27:04;;;;;;;3.10;1.45;;;;;;;;;;4990047;28;20081;-59
2021/10/06 06:29:29;;;;;;;2.35;0.95;;;;;;;;;;4989937;28;20560;-61
2021/10/06 06:31:56;;;;;;;2.97;1.10;;;;;;;;;;4993358;28;20030;-61
2021/10/06 06:34:22;;;;;;;2.15;0.70;;;;;;;;;;4994784;28;20803;-60
2021/10/06 06:36:48;;;;;;;0.95;0.55;;;;;;;;;;4993238;28;20018;-61
2021/10/06 06:39:14;;;;;;;0.52;0.40;;;;;;;;;;4990920;28;20097;-61
2021/10/06 06:41:41;;;;;;;2.00;0.60;;;;;;;;;;4994691;28;20077;-60
2021/10/06 06:44:07;;;;;;;3.03;0.50;;;;;;;;;;4993279;28;20054;-60
2021/10/06 06:46:32;;;;;;;1.55;0.45;;;;;;;;;;4994491;28;20057;-60
2021/10/06 06:48:57;;;;;;;1.60;0.40;;;;;;;;;;4994560;28;20447;-61
2021/10/06 06:51:22;;;;;;;1.83;0.43;;;;;;;;;;4994299;28;20258;-61
2021/10/06 06:53:52;;;;;;;2.03;0.50;;;;;;;;;;4994391;28;20265;-62
2021/10/06 06:56:17;;;;;;;2.38;0.50;;;;;;;;;;4994050;28;20316;-62
2021/10/06 06:58:45;;;;;;;1.77;0.50;;;;;;;;;;4994038;28;20027;-61
2021/10/06 07:01:10;;;;;;;0.55;0.40;;;;;;;;;;4990653;28;20108;-62
2021/10/06 07:03:36;;;;;;;1.20;0.47;;;;;;;;;;4994131;28;20105;-62
2021/10/06 07:06:01;;;;;;;2.80;0.65;;;;;;;;;;4992874;28;20360;-62
2021/10/06 07:08:27;;;;;;;0.80;0.52;;;;;;;;;;4993884;28;20481;-62
2021/10/06 07:10:52;;;;;;;1.53;0.50;;;;;;;;;;4992755;28;20037;-62
2021/10/06 07:13:17;;;;;;;7.83;0.70;;;;;;;;;;4993138;28;20270;-62
2021/10/06 07:15:43;;;;;;;1.37;0.53;;;;;;;;;;4992930;28;20277;-62
2021/10/06 07:18:08;;;;;;;2.72;0.60;;;;;;;;;;4992663;28;20639;-62
2021/10/06 07:20:33;;;;;;;2.05;0.55;;;;;;;;;;4993058;28;20097;-62
2021/10/06 07:22:58;;;;;;;1.40;0.50;;;;;;;;;;4993759;28;20014;-62
2021/10/06 07:25:33;;;;;;;3.70;0.82;;;;;;;;;;4993827;28;20341;-62
2021/10/06 07:28:01;;;;;;;1.80;0.50;;;;;;;;;;4993651;28;20026;-62
2021/10/06 07:30:26;;;;;;;2.05;0.77;;;;;;;;;;4993678;28;20030;-62
2021/10/06 07:33:00;;;;;;;3.10;0.60;;;;;;;;;;4993664;28;20037;-61
2021/10/06 07:35:26;;;;;;;2.88;0.70;;;;;;;;;;4993561;28;20030;-61
2021/10/06 07:37:51;;;;;;;1.17;0.40;;;;;;;;;;4992341;28;20030;-62
2021/10/06 07:40:16;;;;;;;2.50;0.50;;;;;;;;;;4993466;28;20775;-62
2021/10/06 07:42:44;;;;;;;0.93;0.40;;;;;;;;;;4966661;28;20078;-62
2021/10/06 07:45:15;;;;;;;1.95;0.60;;;;;;;;;;4973927;28;20045;-62
2021/10/06 07:47:41;;;;;;;2.63;0.60;;;;;;;;;;4973986;28;20377;-61
2021/10/06 07:50:06;;;;;;;2.42;0.57;;;;;;;;;;4973860;28;20106;-62
2021/10/06 07:52:31;;;;;;;3.55;0.60;;;;;;;;;;4973783;28;20433;-62
2021/10/06 07:54:57;;;;;;;1.13;0.50;;;;;;;;;;4973926;28;20050;-63
2021/10/06 07:57:22;;;;;;;1.60;0.60;;;;;;;;;;4979136;28;20293;-62
2021/10/06 07:59:47;;;;;;;3.40;0.70;;;;;;;;;;4991398;28;20265;-62
2021/10/06 08:02:15;;;;;;;2.00;0.50;;;;;;;;;;4991874;28;20038;-62
2021/10/06 08:04:41;;;;;;;3.63;0.60;;;;;;;;;;4993162;28;20027;-62
2021/10/06 08:07:06;;;;;;;1.63;0.50;;;;;;;;;;4975739;28;20030;-63
2021/10/06 08:09:32;;;;;;;1.57;0.50;;;;;;;;;;4993067;28;20022;-62
2021/10/06 08:11:57;;;;;;;1.48;0.50;;;;;;;;;;4993087;28;20302;-62
2021/10/06 08:14:25;;;;;;;1.00;0.50;;;;;;;;;;4992885;28;20080;-62
2021/10/06 08:16:50;;;;;;;1.33;0.90;;;;;;;;;;4992850;28;20277;-62
2021/10/06 08:19:16;;;;;;;2.07;0.60;;;;;;;;;;4992176;28;20117;-61
2021/10/06 08:21:45;;;;;;;3.60;0.63;;;;;;;;;;4992966;28;20285;-62
2021/10/06 08:24:10;;;;;;;1.67;0.38;;;;;;;;;;4992778;28;20492;-62
2021/10/06 08:26:35;;;;;;;3.25;0.77;;;;;;;;;;4992884;28;20026;-62
2021/10/06 08:29:01;;;;;;;1.55;0.45;;;;;;;;;;4991744;28;20529;-62
2021/10/06 08:31:32;;;;;;;1.80;1.03;;;;;;;;;;4992795;28;20105;-61
2021/10/06 08:34:00;;;;;;;3.63;0.80;;;;;;;;;;4992843;28;20305;-62
2021/10/06 08:36:25;;;;;;;2.20;0.70;;;;;;;;;;4992755;28;20030;-62
2021/10/06 08:39:02;;;;;;;2.13;0.80;;;;;;;;;;4991511;28;20085;-62
2021/10/06 08:41:30;;;;;;;3.05;0.77;;;;;;;;;;4992813;28;20022;-62
2021/10/06 08:43:55;;;;;;;2.25;0.60;;;;;;;;;;4992562;28;20026;-62
2021/10/06 08:46:24;;;;;;;3.83;0.70;;;;;;;;;;4992954;28;20034;-62
2021/10/06 08:49:06;;;;;;;4.88;0.70;;;;;;;;;;4992712;28;20265;-62
2021/10/06 08:51:31;;;;;;;2.60;0.60;;;;;;;;;;4992671;28;20026;-62
2021/10/06 08:53:56;;;;;;;3.13;0.70;;;;;;;;;;4992719;28;20033;-62
2021/10/06 08:56:22;;;;;;;2.90;0.70;;;;;;;;;;4992166;28;20081;-62
2021/10/06 08:58:48;;;;;;;2.50;0.80;;;;;;;;;;5000915;28;20268;-61
2021/10/06 09:01:26;;;;;;;2.35;0.70;;;;;;;;;;4997116;28;20033;-62
2021/10/06 09:03:59;;;;;;;1.77;0.73;;;;;;;;;;4991434;28;20030;-62
2021/10/06 09:06:35;;;;;;;1.75;0.68;;;;;;;;;;4991185;28;20031;-62
2021/10/06 09:09:22;;;;;;;2.35;0.80;;;;;;;;;;4992415;28;20096;-62
2021/10/06 09:12:10;;;;;;;1.85;0.75;;;;;;;;;;4991334;28;20038;-62
2021/10/06 09:14:39;;;;;;;2.40;0.50;;;;;;;;;;4984563;28;20453;-62
2021/10/06 09:17:12;;;;;;;1.80;0.80;;;;;;;;;;4990978;28;20456;-62
2021/10/06 09:19:37;;;;;;;;;;;;;;;;;;4992890;28;20023;-62
2021/10/06 09:22:02;;;;;;;1.13;0.60;;;;;;;;;;4991222;28;19916;-62
2021/10/06 09:24:49;;;;;;;4.55;0.80;;;;;;;;;;4991230;28;20568;-62
2021/10/06 09:27:17;;;;;;;1.08;0.50;;;;;;;;;;4992279;28;20038;-62
2021/10/06 09:29:52;;;;;;;6.38;0.70;;;;;;;;;;4985895;28;20377;-62
2021/10/06 09:32:33;;;;;;;1.35;0.85;;;;;;;;;;4989194;28;20030;-62
2021/10/06 09:35:09;;;;;;;3.15;0.60;;;;;;;;;;4989808;28;20034;-61
2021/10/06 09:37:45;;;;;;;5.10;0.50;;;;;;;;;;4994261;28;20537;-58
2021/10/06 09:40:13;;;;;;;1.48;0.60;;;;;;;;;;5003635;28;20025;-56
2021/10/06 09:42:48;;;;;;;2.97;0.60;;;;;;;;;;4991305;28;20113;-58
2021/10/06 09:45:30;;;;;;;3.60;0.50;;;;;;;;;;4993589;28;20034;-57
2021/10/06 09:48:01;;;;;;;3.50;0.60;;;;;;;;;;4993768;28;20110;-56
2021/10/06 09:50:30;;;;;;;2.95;0.50;;;;;;;;;;4994854;28;20477;-56
2021/10/06 09:53:03;;;;;;;0.77;0.40;;;;;;;;;;4989501;28;20026;-58
2021/10/06 09:55:31;;;;;;;1.85;0.60;;;;;;;;;;4992272;28;20026;-58
2021/10/06 09:57:59;;;;;;;2.35;0.60;;;;;;;;;;4989643;28;20061;-59
2021/10/06 10:00:27;;;;;;;2.25;0.90;;;;;;;;;;4994034;28;20049;-59
2021/10/06 10:02:52;;;;;;;3.47;0.60;;;;;;;;;;4992459;28;20014;-60
2021/10/06 10:05:18;;;;;;;2.63;0.60;;;;;;;;;;4995303;28;20011;-59
2021/10/06 10:07:43;;;;;;;1.80;0.67;;;;;;;;;;4994694;28;20515;-59
2021/10/06 10:10:14;;;;;;;1.17;0.50;;;;;;;;;;4993525;28;20297;-60
2021/10/06 10:12:40;;;;;;;2.42;0.77;;;;;;;;;;4993707;28;20417;-58
2021/10/06 10:15:15;;;;;;;2.78;0.68;;;;;;;;;;4995105;28;20014;-60
2021/10/06 10:17:41;;;;;;;0.93;0.55;;;;;;;;;;4994793;28;20448;-61
2021/10/06 10:20:09;;;;;;;2.67;0.80;;;;;;;;;;4995099;28;20058;-61
2021/10/06 10:22:37;;;;;;;1.05;0.47;;;;;;;;;;4994923;28;20033;-61
2021/10/06 10:25:23;;;;;;;3.13;0.70;;;;;;;;;;4995082;28;20166;-61
2021/10/06 10:28:00;;;;;;;2.25;0.63;;;;;;;;;;4994887;28;20109;-61
2021/10/06 10:30:30;;;;;;;2.50;0.73;;;;;;;;;;4994820;28;20026;-62
2021/10/06 10:33:37;;;;;;;2.67;0.90;;;;;;;;;;4994855;28;20023;-62
2021/10/06 10:39:26;;;;;;;4.35;0.63;;;;;;;;;;4994928;28;20065;-61
2021/10/06 10:42:10;;;;;;;2.38;1.02;;;;;;;;;;4993096;28;20026;-58
2021/10/06 10:50:45;;;;;;;0.90;0.50;;;;;;;;;;4995071;28;20476;-55
2021/10/06 10:53:15;;;;;;;3.53;0.60;;;;;;;;;;4992878;28;20027;-57
2021/10/06 10:55:58;;;;;;;2.35;0.60;;;;;;;;;;4993116;28;20030;-59
2021/10/06 10:58:30;;;;;;;2.72;0.68;;;;;;;;;;5000192;28;20045;-59
2021/10/06 11:01:05;;;;;;;2.65;0.68;;;;;;;;;;5001166;28;20469;-57
2021/10/06 11:03:31;;;;;;;1.63;0.57;;;;;;;;;;4994162;28;20026;-59
2021/10/06 11:06:01;;;;;;;2.58;0.40;;;;;;;;;;4994288;28;20050;-59
2021/10/06 11:08:30;;;;;;;0.60;0.50;;;;;;;;;;4989030;28;20038;-59
2021/10/06 11:11:14;;;;;;;3.22;0.60;;;;;;;;;;4992332;28;20023;-59
2021/10/06 11:13:41;;;;;;;0.40;0.40;;;;;;;;;;4993979;28;20034;-59
2021/10/06 11:16:07;;;;;;;4.28;0.50;;;;;;;;;;4993921;28;20026;-59
2021/10/06 11:18:44;;;;;;;3.15;0.52;;;;;;;;;;4993865;28;20419;-59
2021/10/06 11:21:10;;;;;;;1.75;0.50;;;;;;;;;;4992552;28;20038;-60
2021/10/06 11:23:36;;;;;;;2.00;0.65;;;;;;;;;;4991233;28;20014;-60
2021/10/06 11:26:10;;;;;;;3.05;0.40;;;;;;;;;;4992343;28;20057;-60
2021/10/06 11:28:43;;;;;;;1.05;0.60;;;;;;;;;;4989903;28;20022;-61
2021/10/06 11:31:28;;;;;;;1.20;0.35;;;;;;;;;;4992371;28;20030;-60
2021/10/06 11:33:54;;;;;;;1.38;0.50;;;;;;;;;;4992436;28;20053;-60
2021/10/06 11:36:30;;;;;;;1.17;0.40;;;;;;;;;;4992177;28;20026;-60
2021/10/06 11:38:56;;;;;;;1.08;0.75;;;;;;;;;;4987503;28;20030;-61
2021/10/06 11:41:21;;;;;;;3.25;0.93;;;;;;;;;;4987147;28;20106;-59
2021/10/06 11:43:48;;;;;;;3.08;0.65;;;;;;;;;;4991098;28;20029;-60
2021/10/06 11:46:22;;;;;;;0.88;0.45;;;;;;;;;;4992241;28;20025;-59
2021/10/06 11:48:48;;;;;;;1.92;0.80;;;;;;;;;;4991765;28;20489;-61
2021/10/06 11:51:14;;;;;;;2.42;0.70;;;;;;;;;;4987424;28;20034;-61
2021/10/06 11:53:47;;;;;;;2.05;0.77;;;;;;;;;;4991341;28;20084;-60
2021/10/06 11:56:31;;;;;;;1.15;0.50;;;;;;;;;;4993028;28;20037;-60
2021/10/06 11:59:13;;;;;;;2.63;0.40;;;;;;;;;;4989798;28;20425;-60
2021/10/06 12:01:39;;;;;;;0.77;0.50;;;;;;;;;;4991870;28;20369;-61
2021/10/06 12:04:12;;;;;;;1.17;0.30;;;;;;;;;;4988312;28;20018;-59
2021/10/06 12:06:38;;;;;;;0.68;0.50;;;;;;;;;;4992962;28;20521;-61
2021/10/06 12:09:09;;;;;;;3.03;0.40;;;;;;;;;;4993080;28;20033;-61
2021/10/06 12:11:35;;;;;;;1.88;0.60;;;;;;;;;;4993083;28;20030;-61
2021/10/06 12:14:15;;;;;;;1.38;0.60;;;;;;;;;;4962674;28;20114;-61
2021/10/06 12:16:44;;;;;;;1.13;0.40;;;;;;;;;;4972566;28;20027;-61
2021/10/06 12:19:20;;;;;;;1.60;0.68;;;;;;;;;;4972364;28;20023;-61
2021/10/06 12:21:49;;;;;;;4.03;0.77;;;;;;;;;;4973661;28;20116;-61
2021/10/06 12:24:16;;;;;;;4.32;0.77;;;;;;;;;;4972225;28;20023;-61
2021/10/06 12:26:42;;;;;;;1.27;0.60;;;;;;;;;;4973454;28;20022;-59
2021/10/06 12:29:10;;;;;;;2.40;0.60;;;;;;;;;;4972140;28;20382;-60
2021/10/06 12:31:37;;;;;;;1.33;0.50;;;;;;;;;;4972221;28;20114;-61
2021/10/06 12:34:18;;;;;;;2.00;1.00;;;;;;;;;;4973426;28;20459;-62
2021/10/06 12:36:45;;;;;;;1.55;0.50;;;;;;;;;;4973264;28;20386;-60
2021/10/06 12:39:13;;;;;;;1.27;0.32;;;;;;;;;;4973418;28;20023;-62
2021/10/06 12:41:39;;;;;;;2.95;0.60;;;;;;;;;;4973370;28;20026;-62
2021/10/06 12:44:15;;;;;;;1.92;0.55;;;;;;;;;;4973387;28;20019;-62
2021/10/06 12:46:54;;;;;;;1.30;0.60;;;;;;;;;;4972042;28;20097;-62
2021/10/06 12:49:23;;;;;;;2.03;0.50;;;;;;;;;;4972107;28;20031;-62
2021/10/06 12:52:02;;;;;;;2.58;0.90;;;;;;;;;;4973218;28;20099;-62
2021/10/06 12:54:31;;;;;;;0.98;0.50;;;;;;;;;;4973367;28;20030;-62
2021/10/06 12:56:57;;;;;;;1.27;0.50;;;;;;;;;;4979156;28;20097;-63
2021/10/06 12:59:27;;;;;;;1.70;0.45;;;;;;;;;;5005700;28;20022;-62
2021/10/06 13:01:59;;;;;;;1.25;0.40;;;;;;;;;;4984111;28;20025;-62
2021/10/06 13:04:25;;;;;;;0.50;0.32;;;;;;;;;;4973006;28;20027;-62
2021/10/06 13:06:51;;;;;;;0.30;0.30;;;;;;;;;;4973034;28;20035;-62
2021/10/06 13:09:20;;;;;;;1.77;0.52;;;;;;;;;;4971862;28;20029;-62
2021/10/06 13:11:46;;;;;;;2.40;0.45;;;;;;;;;;4975787;28;20030;-62
2021/10/06 13:14:13;;;;;;;1.83;0.50;;;;;;;;;;4975358;28;20057;-62
2021/10/06 13:16:38;;;;;;;1.52;0.55;;;;;;;;;;4975491;28;20034;-62
2021/10/06 13:19:04;;;;;;;0.93;0.32;;;;;;;;;;4976637;28;20381;-62
2021/10/06 13:21:31;;;;;;;1.52;0.60;;;;;;;;;;4976951;28;20398;-62
2021/10/06 13:23:57;;;;;;;1.00;0.57;;;;;;;;;;4976656;28;20027;-62
2021/10/06 13:26:23;;;;;;;0.45;0.30;;;;;;;;;;4975348;28;20030;-62
2021/10/06 13:28:50;;;;;;;1.17;0.45;;;;;;;;;;4976498;28;20027;-62
2021/10/06 13:31:15;;;;;;;1.17;0.55;;;;;;;;;;4976470;28;20015;-63
2021/10/06 13:33:41;;;;;;;1.40;0.30;;;;;;;;;;4990533;28;20486;-61
2021/10/06 13:36:08;;;;;;;0.52;0.43;;;;;;;;;;4987575;28;20132;-61
2021/10/06 13:38:34;;;;;;;1.30;0.43;;;;;;;;;;4990311;28;20025;-62
2021/10/06 13:41:00;;;;;;;0.52;0.30;;;;;;;;;;4993297;28;20390;-61
2021/10/06 13:43:25;;;;;;;0.57;0.38;;;;;;;;;;4989831;28;20172;-62
2021/10/06 13:45:51;;;;;;;0.52;0.40;;;;;;;;;;4992430;28;20031;-62
2021/10/06 13:48:16;;;;;;;0.77;0.40;;;;;;;;;;4991623;28;20137;-62
2021/10/06 13:50:42;;;;;;;1.30;0.50;;;;;;;;;;4989391;28;20034;-62
2021/10/06 13:53:07;;;;;;;1.55;0.45;;;;;;;;;;4993188;28;20371;-61
2021/10/06 13:55:33;;;;;;;0.30;0.30;;;;;;;;;;4993386;28;20389;-62
2021/10/06 13:57:59;;;;;;;1.00;0.40;;;;;;;;;;4994640;28;20047;-62
2021/10/06 14:00:26;;;;;;;1.05;0.63;;;;;;;;;;4992850;28;20069;-60
2021/10/06 14:02:52;;;;;;;1.45;0.40;;;;;;;;;;4993026;28;20053;-62
2021/10/06 14:05:18;;;;;;;2.15;0.50;;;;;;;;;;4992557;28;20066;-61
2021/10/06 14:07:46;;;;;;;2.53;0.40;;;;;;;;;;4992823;28;20022;-62
2021/10/06 14:10:11;;;;;;;1.45;0.50;;;;;;;;;;4993479;28;20018;-62
2021/10/06 14:12:39;;;;;;;0.88;0.40;;;;;;;;;;4992457;28;20037;-61
2021/10/06 14:15:05;;;;;;;0.38;0.30;;;;;;;;;;4989347;28;20023;-62
2021/10/06 14:17:31;;;;;;;1.08;0.40;;;;;;;;;;4991128;28;20035;-62
2021/10/06 14:19:56;;;;;;;0.82;0.38;;;;;;;;;;4990673;28;20031;-61
2021/10/06 14:22:24;;;;;;;0.77;0.30;;;;;;;;;;4990154;28;20049;-58
2021/10/06 14:24:52;;;;;;;0.50;0.40;;;;;;;;;;4993372;28;20033;-62
2021/10/06 14:27:17;;;;;;;2.33;0.40;;;;;;;;;;4993627;28;20035;-62
2021/10/06 14:29:43;;;;;;;1.50;0.43;;;;;;;;;;4992877;28;20026;-62
2021/10/06 14:32:08;;;;;;;2.83;0.75;;;;;;;;;;4994287;28;20060;-61
2021/10/06 14:34:34;;;;;;;1.35;0.55;;;;;;;;;;4994380;28;20030;-61
2021/10/06 14:36:59;;;;;;;1.25;0.40;;;;;;;;;;4991526;28;20042;-60
2021/10/06 14:39:25;;;;;;;0.60;0.40;;;;;;;;;;4990205;28;20474;-62
2021/10/06 14:41:51;;;;;;;0.85;0.30;;;;;;;;;;4994146;28;20029;-61
2021/10/06 14:44:16;;;;;;;0.43;0.30;;;;;;;;;;4993615;28;20417;-62
2021/10/06 14:46:42;;;;;;;0.75;0.50;;;;;;;;;;4993139;28;20029;-62
2021/10/06 14:49:07;;;;;;;0.85;0.40;;;;;;;;;;4994180;28;20019;-62
2021/10/06 14:51:32;;;;;;;1.70;0.52;;;;;;;;;;4993864;28;20088;-62
2021/10/06 14:53:58;;;;;;;1.48;0.40;;;;;;;;;;4993834;28;20057;-63
2021/10/06 14:56:23;;;;;;;0.93;0.60;;;;;;;;;;4993257;28;20054;-61
2021/10/06 14:58:49;;;;;;;0.77;0.50;;;;;;;;;;4993575;28;20382;-62